Time;durP1;ratioP1;P1;durP2;ratioP2;P2;SDS_P1;SDS_P2;PMS_P1;PMS_P2;Temp;Humidity;BMP_temperature;BMP_pressure;BME280_temperature;BME280_humidity;BME280_pressure;Samples;Min_cycle;Max_cycle;Signal;HPM_P1;HPM_P2
2022/10/01 00:00:21;;;;;;;5.18;4.05;;;;;;;21.41;49.87;99905.22;5091586;28;20048;-79
2022/10/01 00:02:46;;;;;;;4.18;3.70;;;;;;;21.00;49.77;99857.94;5091510;28;20028;-79
2022/10/01 00:05:12;;;;;;;5.45;3.90;;;;;;;21.20;49.78;99879.00;5090338;28;20039;-79
2022/10/01 00:07:39;;;;;;;6.43;4.25;;;;;;;21.47;49.68;99917.69;5091513;28;20466;-79
2022/10/01 00:10:06;;;;;;;6.28;4.00;;;;;;;21.00;49.77;99838.34;5091629;28;20063;-79
2022/10/01 00:12:32;;;;;;;5.22;4.40;;;;;;;21.51;49.67;99920.72;5091756;28;20012;-79
2022/10/01 00:14:57;;;;;;;5.40;4.10;;;;;;;21.06;49.45;99846.25;5091647;28;20031;-79
2022/10/01 00:17:23;;;;;;;6.68;4.13;;;;;;;21.45;49.36;99901.00;5091281;28;20031;-79
2022/10/01 00:19:48;;;;;;;7.03;4.40;;;;;;;21.06;49.45;99845.44;5091219;28;20040;-79
2022/10/01 00:22:14;;;;;;;5.53;4.15;;;;;;;20.81;49.54;99806.31;5091378;28;20553;-79
2022/10/01 00:24:39;;;;;;;4.32;3.92;;;;;;;20.93;49.53;99820.50;5092492;28;20055;-79
2022/10/01 00:27:05;;;;;;;7.15;4.00;;;;;;;21.48;49.56;99899.72;5092859;28;20020;-79
2022/10/01 00:29:30;;;;;;;6.30;4.03;;;;;;;20.70;49.55;99782.16;5093840;28;20537;-79
2022/10/01 00:31:57;;;;;;;5.70;3.80;;;;;;;21.40;49.63;99897.41;5102149;28;20047;-79
2022/10/01 00:34:22;;;;;;;5.82;4.03;;;;;;;20.88;49.77;99828.44;5113090;28;20059;-79
2022/10/01 00:36:48;;;;;;;4.97;3.90;;;;;;;20.98;49.77;99853.88;5102363;28;20039;-80
2022/10/01 00:39:14;;;;;;;5.63;4.22;;;;;;;21.28;49.84;99891.25;5091170;28;20020;-79
2022/10/01 00:41:40;;;;;;;6.25;3.85;;;;;;;20.93;49.87;99823.19;5090428;28;20027;-80
2022/10/01 00:44:35;;;;;;;6.90;4.38;;;;;;;21.29;50.00;99882.97;5091090;28;20052;-79
2022/10/01 00:47:24;;;;;;;5.38;4.43;;;;;;;21.22;49.87;99872.38;5091161;28;20028;-79
2022/10/01 00:49:55;;;;;;;5.78;4.03;;;;;;;21.32;49.80;99898.59;5087568;28;20036;-79
2022/10/01 00:52:24;;;;;;;4.93;3.88;;;;;;;21.30;49.84;99895.34;5090860;28;20039;-79
2022/10/01 00:55:19;;;;;;;7.78;4.32;;;;;;;21.21;50.03;99888.69;5090996;28;20416;-79
2022/10/01 00:57:45;;;;;;;5.97;4.40;;;;;;;21.10;50.23;99887.69;5086235;28;20513;-79
2022/10/01 01:00:12;;;;;;;6.93;4.60;;;;;;;20.28;50.21;99779.66;5090764;28;20044;-79
2022/10/01 01:02:39;;;;;;;4.88;3.90;;;;;;;20.67;50.27;99839.78;5090849;28;20024;-79
2022/10/01 01:05:07;;;;;;;5.57;4.03;;;;;;;20.44;50.33;99800.41;5089551;28;20051;-79
2022/10/01 01:07:33;;;;;;;4.72;4.22;;;;;;;20.79;50.13;99848.63;5092027;28;20065;-79
2022/10/01 01:10:00;;;;;;;5.07;3.95;;;;;;;20.87;49.97;99872.44;5089754;28;20024;-79
2022/10/01 01:12:53;;;;;;;6.00;4.47;;;;;;;21.04;49.98;99894.00;5090918;28;20485;-79
2022/10/01 01:15:43;;;;;;;5.25;4.43;;;;;;;20.97;50.22;99877.22;5091042;28;20032;-79
2022/10/01 01:18:14;;;;;;;6.22;3.95;;;;;;;20.39;50.12;99775.31;5091052;28;20032;-79
2022/10/01 01:20:53;;;;;;;6.13;4.40;;;;;;;20.98;50.07;99869.97;5091086;28;20035;-79
2022/10/01 01:23:28;;;;;;;5.55;3.92;;;;;;;20.57;49.94;99810.88;5090964;28;20034;-79
2022/10/01 01:25:59;;;;;;;5.53;4.60;;;;;;;21.00;49.96;99873.22;5090984;28;20051;-79
2022/10/01 01:28:33;;;;;;;6.65;4.30;;;;;;;21.00;49.76;99881.28;5090883;28;20061;-79
2022/10/01 01:31:02;;;;;;;6.78;4.43;;;;;;;20.50;50.02;99820.94;5092587;28;20409;-79
2022/10/01 01:33:33;;;;;;;5.18;4.10;;;;;;;20.26;49.92;99781.75;5094387;28;20096;-79
2022/10/01 01:36:04;;;;;;;7.85;4.15;;;;;;;20.81;49.97;99889.50;5093619;28;20019;-80
2022/10/01 01:38:37;;;;;;;6.88;4.82;;;;;;;20.16;50.13;99803.81;5094573;28;20497;-79
2022/10/01 01:41:04;;;;;;;6.25;4.50;;;;;;;20.24;50.39;99842.84;5094394;28;20107;-79
2022/10/01 01:43:35;;;;;;;7.93;4.13;;;;;;;20.02;50.40;99799.69;5092938;28;20173;-79
2022/10/01 01:46:04;;;;;;;6.20;4.40;;;;;;;20.65;50.15;99879.47;5093030;28;20416;-79
2022/10/01 01:48:35;;;;;;;5.63;4.05;;;;;;;20.51;50.34;99880.75;5093452;28;20024;-79
2022/10/01 01:51:11;;;;;;;6.13;4.38;;;;;;;20.52;50.19;99885.91;5093926;28;20109;-79
2022/10/01 01:53:37;;;;;;;4.80;4.20;;;;;;;20.38;50.56;99865.69;5093962;28;20031;-79
2022/10/01 01:56:04;;;;;;;5.53;4.13;;;;;;;20.38;50.71;99886.34;5094038;28;20416;-79
2022/10/01 01:58:33;;;;;;;6.97;4.07;;;;;;;19.88;50.85;99812.50;5093874;28;20100;-79
2022/10/01 02:00:58;;;;;;;5.20;4.38;;;;;;;19.84;50.55;99816.72;5092604;28;20063;-79
2022/10/01 02:03:28;;;;;;;8.10;4.75;;;;;;;19.84;50.72;99834.66;5094027;28;20028;-79
2022/10/01 02:06:32;;;;;;;6.10;4.30;;;;;;;19.95;50.71;99848.06;5094571;28;20081;-79
2022/10/01 02:09:13;;;;;;;7.80;4.70;;;;;;;20.18;50.65;99900.09;5095240;28;20027;-79
2022/10/01 02:11:52;;;;;;;10.80;4.07;;;;;;;19.60;51.12;99839.97;5093455;28;20456;-79
2022/10/01 02:14:38;;;;;;;6.00;4.85;;;;;;;19.40;51.17;99819.84;5093681;28;20034;-79
2022/10/01 02:17:15;;;;;;;6.07;4.22;;;;;;;19.61;51.44;99887.13;5092423;28;20024;-79
2022/10/01 02:19:50;;;;;;;9.23;4.82;;;;;;;19.43;51.50;99847.00;5093444;28;20031;-79
2022/10/01 02:22:25;;;;;;;5.95;4.63;;;;;;;19.18;51.38;99780.19;5091983;28;20036;-79
2022/10/01 02:24:56;;;;;;;7.25;4.40;;;;;;;19.30;51.35;99798.97;5093342;28;20093;-79
2022/10/01 02:27:31;;;;;;;5.07;4.68;;;;;;;19.89;51.34;99877.66;5093329;28;20532;-79
2022/10/01 02:30:02;;;;;;;6.03;5.25;;;;;;;19.64;51.07;99843.00;5092890;28;20110;-79
2022/10/01 02:32:30;;;;;;;8.35;4.80;;;;;;;20.10;50.98;99906.59;5093503;28;20024;-79
2022/10/01 02:34:57;;;;;;;5.97;5.10;;;;;;;19.87;50.93;99867.16;5091973;28;20028;-79
2022/10/01 02:37:25;;;;;;;8.52;4.82;;;;;;;19.67;51.25;99848.72;5091921;28;20539;-79
2022/10/01 02:39:55;;;;;;;7.63;4.53;;;;;;;19.55;50.91;99812.25;5093003;28;20028;-79
2022/10/01 02:42:24;;;;;;;6.82;4.93;;;;;;;19.66;50.67;99814.94;5092456;28;20024;-79
2022/10/01 02:44:53;;;;;;;7.38;4.65;;;;;;;20.25;50.67;99924.94;5092856;28;20020;-79
2022/10/01 02:47:37;;;;;;;5.25;4.75;;;;;;;19.78;51.04;99859.69;5092936;28;20031;-79
2022/10/01 02:50:05;;;;;;;8.00;4.68;;;;;;;20.12;51.09;99923.28;5093195;28;20531;-79
2022/10/01 02:52:37;;;;;;;7.78;5.07;;;;;;;19.80;50.85;99871.81;5092663;28;20028;-79
2022/10/01 02:55:16;;;;;;;5.10;4.60;;;;;;;19.77;50.95;99866.09;5092766;28;20028;-79
2022/10/01 02:57:42;;;;;;;6.82;4.50;;;;;;;19.74;51.07;99858.50;5092813;28;20103;-79
2022/10/01 03:00:11;;;;;;;5.53;4.85;;;;;;;20.09;50.94;99909.53;5091246;28;20064;-79
2022/10/01 03:02:36;;;;;;;8.23;4.78;;;;;;;19.36;51.00;99793.53;5091594;28;20024;-79
2022/10/01 03:05:02;;;;;;;5.88;4.80;;;;;;;19.93;51.04;99885.00;5092739;28;20382;-79
2022/10/01 03:07:30;;;;;;;5.50;4.90;;;;;;;20.06;51.20;99934.06;5096251;28;20036;-79
2022/10/01 03:09:56;;;;;;;6.70;4.63;;;;;;;20.08;51.12;99930.16;5092416;28;20424;-79
2022/10/01 03:12:22;;;;;;;9.13;4.90;;;;;;;19.42;50.98;99823.13;5092498;28;20032;-79
2022/10/01 03:14:48;;;;;;;7.78;5.28;;;;;;;19.35;51.35;99845.47;5092495;28;20028;-78
2022/10/01 03:17:15;;;;;;;5.70;4.82;;;;;;;19.70;51.39;99903.69;5092368;28;20051;-79
2022/10/01 03:19:40;;;;;;;8.60;4.60;;;;;;;19.16;51.46;99843.03;5092161;28;20034;-79
2022/10/01 03:22:06;;;;;;;5.20;4.70;;;;;;;19.64;51.65;99910.78;5092017;28;20471;-79
2022/10/01 03:24:32;;;;;;;5.38;4.88;;;;;;;19.68;51.46;99928.03;5091451;28;20028;-79
2022/10/01 03:26:58;;;;;;;5.75;4.97;;;;;;;19.61;51.30;99903.22;5091937;28;20035;-79
2022/10/01 03:29:24;;;;;;;7.05;5.22;;;;;;;19.43;51.39;99873.78;5092333;28;20039;-79
2022/10/01 03:31:50;;;;;;;6.50;5.00;;;;;;;19.39;51.27;99879.81;5092556;28;20028;-79
2022/10/01 03:34:16;;;;;;;6.57;4.88;;;;;;;18.26;51.17;99701.94;5109344;28;20008;-79
2022/10/01 03:36:41;;;;;;;6.35;4.80;;;;;;;19.55;51.29;99908.66;5112292;28;20109;-79
2022/10/01 03:39:07;;;;;;;6.88;5.15;;;;;;;19.52;51.34;99906.41;5092017;28;20102;-79
2022/10/01 03:41:32;;;;;;;6.43;5.07;;;;;;;19.43;51.44;99891.69;5091927;28;20035;-79
2022/10/01 03:43:58;;;;;;;5.78;5.03;;;;;;;19.22;51.64;99876.91;5090513;28;20028;-79
2022/10/01 03:46:25;;;;;;;6.88;4.95;;;;;;;19.60;51.38;99928.38;5090438;28;20038;-79
2022/10/01 03:48:50;;;;;;;5.28;4.72;;;;;;;19.39;51.42;99920.78;5091662;28;20102;-79
2022/10/01 03:51:16;;;;;;;5.13;4.63;;;;;;;19.72;51.34;99949.00;5091672;28;20043;-79
2022/10/01 03:53:41;;;;;;;5.60;5.10;;;;;;;19.43;51.26;99911.25;5090975;28;20016;-79
2022/10/01 03:56:07;;;;;;;5.53;4.95;;;;;;;19.78;51.14;99945.44;5091851;28;20035;-79
2022/10/01 03:58:32;;;;;;;9.35;5.35;;;;;;;19.13;51.03;99841.63;5091705;28;20043;-79
2022/10/01 04:00:59;;;;;;;8.65;5.10;;;;;;;18.95;51.38;99837.13;5091617;28;20123;-79
2022/10/01 04:03:25;;;;;;;6.97;5.20;;;;;;;19.78;51.29;99969.53;5091571;28;20031;-79
2022/10/01 04:05:50;;;;;;;7.03;4.57;;;;;;;19.76;51.28;99961.72;5091653;28;20027;-79
2022/10/01 04:08:16;;;;;;;6.40;5.40;;;;;;;19.79;51.11;99961.28;5091820;28;20032;-79
2022/10/01 04:10:41;;;;;;;6.60;5.20;;;;;;;19.80;51.10;99954.06;5091645;28;20032;-79
2022/10/01 04:13:07;;;;;;;7.38;5.18;;;;;;;19.50;51.08;99912.00;5091757;28;20550;-79
2022/10/01 04:15:33;;;;;;;10.63;5.40;;;;;;;19.85;51.17;99962.22;5091618;28;20020;-79
2022/10/01 04:18:00;;;;;;;7.22;5.50;;;;;;;19.70;51.14;99922.44;5089349;28;20024;-79
2022/10/01 04:20:25;;;;;;;10.65;5.35;;;;;;;19.55;51.08;99893.41;5091431;28;20103;-79
2022/10/01 04:22:51;;;;;;;7.68;5.85;;;;;;;19.43;51.33;99873.78;5091652;28;20107;-79
2022/10/01 04:25:17;;;;;;;10.15;6.10;;;;;;;19.40;51.37;99868.88;5091827;28;20485;-79
2022/10/01 04:27:57;;;;;;;7.63;5.22;;;;;;;19.87;51.19;99936.00;5091193;28;20081;-79
2022/10/01 04:30:24;;;;;;;7.82;5.55;;;;;;;19.86;51.44;99939.75;5091167;28;20107;-79
2022/10/01 04:32:50;;;;;;;7.45;5.10;;;;;;;19.73;51.36;99915.81;5089954;28;20085;-79
2022/10/01 04:35:15;;;;;;;8.98;6.00;;;;;;;19.33;51.45;99860.94;5091569;28;20019;-79
2022/10/01 04:37:40;;;;;;;8.20;5.30;;;;;;;19.69;51.32;99904.75;5091461;28;20021;-79
2022/10/01 04:40:06;;;;;;;9.68;5.47;;;;;;;19.45;51.19;99876.22;5091324;28;20107;-79
2022/10/01 04:42:32;;;;;;;7.05;5.20;;;;;;;19.45;51.08;99879.72;5089778;28;20417;-79
2022/10/01 04:44:57;;;;;;;7.97;5.72;;;;;;;19.37;50.95;99858.63;5090044;28;20096;-79
2022/10/01 04:47:23;;;;;;;7.35;5.53;;;;;;;19.95;51.35;99927.66;5091258;28;20108;-79
2022/10/01 04:49:48;;;;;;;8.18;6.00;;;;;;;20.14;51.31;99956.03;5091125;28;20474;-79
2022/10/01 04:52:14;;;;;;;9.02;6.38;;;;;;;20.20;51.34;99967.69;5091054;28;20032;-78
2022/10/01 04:54:39;;;;;;;10.43;6.72;;;;;;;20.00;51.12;99939.31;5090953;28;20049;-79
2022/10/01 04:57:04;;;;;;;7.63;6.55;;;;;;;19.93;51.10;99933.25;5090843;28;20115;-79
2022/10/01 04:59:30;;;;;;;8.60;6.20;;;;;;;20.25;51.34;99968.66;5091060;28;20032;-79
2022/10/01 05:01:56;;;;;;;9.32;6.75;;;;;;;20.26;51.08;99972.16;5090984;28;20052;-79
2022/10/01 05:04:22;;;;;;;8.60;6.97;;;;;;;20.16;50.93;99956.63;5091820;28;20161;-79
2022/10/01 05:06:47;;;;;;;9.10;6.53;;;;;;;20.37;50.80;99973.22;5094800;28;20028;-79
2022/10/01 05:09:13;;;;;;;10.63;7.15;;;;;;;20.40;50.94;99970.09;5094749;28;20438;-79
2022/10/01 05:11:38;;;;;;;11.43;7.40;;;;;;;19.82;50.81;99875.06;5093985;28;20024;-79
2022/10/01 05:14:04;;;;;;;13.98;6.70;;;;;;;20.20;50.65;99927.47;5094702;28;20020;-79
2022/10/01 05:16:29;;;;;;;13.00;7.05;;;;;;;19.78;50.87;99860.50;5093370;28;20024;-79
2022/10/01 05:18:55;;;;;;;8.77;6.20;;;;;;;19.87;50.73;99883.25;5094510;28;20030;-79
2022/10/01 05:21:20;;;;;;;9.80;6.57;;;;;;;20.53;50.80;100000.19;5093147;28;20140;-79
2022/10/01 05:23:45;;;;;;;8.63;6.72;;;;;;;19.91;50.78;99897.00;5094423;28;20154;-79
2022/10/01 05:26:11;;;;;;;10.60;7.15;;;;;;;19.92;50.74;99903.97;5094464;28;20393;-78
2022/10/01 05:28:39;;;;;;;9.05;7.00;;;;;;;19.98;50.65;99900.38;5094468;28;20123;-79
2022/10/01 05:31:05;;;;;;;10.85;6.97;;;;;;;20.45;50.40;99983.63;5094320;28;20024;-79
2022/10/01 05:33:32;;;;;;;8.65;6.70;;;;;;;20.45;50.06;99968.34;5094325;28;20519;-79
2022/10/01 05:35:58;;;;;;;9.40;6.60;;;;;;;20.85;49.85;100008.75;5094684;28;20027;-77
2022/10/01 05:38:24;;;;;;;8.25;5.85;;;;;;;20.54;49.81;99942.81;5094448;28;20020;-79
2022/10/01 05:40:50;;;;;;;6.82;6.20;;;;;;;20.48;49.57;99935.69;5094421;28;20511;-78
2022/10/01 05:43:17;;;;;;;6.80;5.65;;;;;;;20.85;49.39;99965.81;5092886;28;20028;-79
2022/10/01 05:45:43;;;;;;;8.82;5.78;;;;;;;21.16;49.47;99996.81;5094203;28;20047;-78
2022/10/01 05:48:09;;;;;;;14.23;5.75;;;;;;;21.22;49.66;99984.31;5094189;28;20032;-78
2022/10/01 05:50:39;;;;;;;7.85;5.80;;;;;;;20.75;49.44;99890.41;5093044;28;20507;-78
2022/10/01 05:53:05;;;;;;;7.93;5.82;;;;;;;21.25;49.37;99973.13;5092820;28;20031;-79
2022/10/01 05:55:33;;;;;;;10.73;6.32;;;;;;;21.36;49.62;99979.53;5092774;28;20028;-79
2022/10/01 05:58:04;;;;;;;9.27;6.35;;;;;;;21.48;49.57;99994.56;5094002;28;20024;-79
2022/10/01 06:00:32;;;;;;;13.73;6.38;;;;;;;21.53;49.64;99996.53;5094000;28;20130;-79
2022/10/01 06:02:59;;;;;;;9.10;6.07;;;;;;;21.24;49.54;99956.19;5093906;28;20098;-79
2022/10/01 06:05:25;;;;;;;9.15;6.10;;;;;;;21.59;49.45;100008.22;5093400;28;20550;-79
2022/10/01 06:07:50;;;;;;;8.55;6.70;;;;;;;21.27;49.13;99959.47;5093822;28;20496;-79
2022/10/01 06:10:17;;;;;;;8.45;6.25;;;;;;;20.76;49.22;99867.91;5093777;28;20031;-79
2022/10/01 06:12:43;;;;;;;9.32;6.00;;;;;;;21.67;49.48;99997.09;5093914;28;20413;-79
2022/10/01 06:15:09;;;;;;;9.40;5.97;;;;;;;21.72;49.36;100007.94;5093519;28;20028;-79
2022/10/01 06:17:34;;;;;;;11.30;5.60;;;;;;;21.77;49.14;99991.91;5091514;28;20124;-79
2022/10/01 06:20:00;;;;;;;9.55;5.63;;;;;;;21.40;49.07;99945.75;5093562;28;20083;-79
2022/10/01 06:22:25;;;;;;;11.57;6.35;;;;;;;21.70;48.76;99975.13;5093573;28;20058;-79
2022/10/01 06:24:51;;;;;;;12.77;6.40;;;;;;;21.27;48.93;99897.69;5093368;28;20028;-79
2022/10/01 06:27:17;;;;;;;11.18;6.22;;;;;;;21.83;48.72;99981.00;5093447;28;20051;-78
2022/10/01 06:29:43;;;;;;;13.07;6.55;;;;;;;21.55;48.65;99935.31;5093252;28;20035;-78
2022/10/01 06:32:12;;;;;;;11.63;6.85;;;;;;;21.68;48.56;99955.72;5093314;28;20028;-78
2022/10/01 06:34:37;;;;;;;12.90;7.30;;;;;;;21.80;48.42;99964.56;5091836;28;20035;-78
2022/10/01 06:37:03;;;;;;;8.30;6.82;;;;;;;21.62;48.59;99935.19;5093163;28;20024;-80
2022/10/01 06:39:28;;;;;;;10.20;6.18;;;;;;;21.77;48.81;99933.59;5094531;28;20468;-80
2022/10/01 06:41:53;;;;;;;8.50;6.43;;;;;;;22.06;48.53;99950.53;5093792;28;20024;-79
2022/10/01 06:44:19;;;;;;;8.73;5.80;;;;;;;21.79;48.51;99885.78;5091935;28;20496;-79
2022/10/01 06:46:45;;;;;;;8.13;6.03;;;;;;;22.11;48.58;99939.84;5093427;28;20028;-79
2022/10/01 06:49:10;;;;;;;6.90;6.30;;;;;;;21.98;48.39;99920.50;5093171;28;20031;-79
2022/10/01 06:54:20;;;;;;;7.82;5.68;;;;;;;22.22;48.85;99942.72;5093451;28;20027;-79
2022/10/01 06:56:45;;;;;;;9.50;5.45;;;;;;;22.07;48.92;99905.63;5108844;28;20024;-79
2022/10/01 06:59:10;;;;;;;6.88;5.50;;;;;;;22.51;48.60;99988.16;5110663;28;20028;-79
2022/10/01 07:01:36;;;;;;;8.48;5.72;;;;;;;21.92;48.58;99867.69;5093097;28;20055;-79
2022/10/01 07:04:01;;;;;;;6.13;5.40;;;;;;;21.59;48.75;99806.69;5093720;28;20099;-79
2022/10/01 07:06:27;;;;;;;10.15;5.53;;;;;;;22.63;48.67;99968.41;5093765;28;20039;-78
2022/10/01 07:08:53;;;;;;;8.93;6.28;;;;;;;21.88;48.70;99840.50;5093051;28;20031;-78
2022/10/01 07:11:18;;;;;;;7.63;5.75;;;;;;;22.65;48.60;99952.81;5092776;28;20467;-79
2022/10/01 07:13:44;;;;;;;9.10;5.35;;;;;;;22.74;48.34;99943.25;5092763;28;20055;-79
2022/10/01 07:16:10;;;;;;;6.55;5.10;;;;;;;22.58;48.26;99918.00;5092783;28;20024;-79
2022/10/01 07:18:36;;;;;;;6.00;4.55;;;;;;;22.86;47.57;99952.06;5092519;28;20032;-78
2022/10/01 07:21:01;;;;;;;5.60;4.32;;;;;;;23.10;46.95;99979.63;5092486;28;20039;-79
2022/10/01 07:23:27;;;;;;;5.53;4.47;;;;;;;22.85;46.66;99928.09;5092032;28;20020;-79
2022/10/01 07:25:53;;;;;;;4.82;3.97;;;;;;;23.24;46.51;99980.06;5092120;28;20024;-79
2022/10/01 07:28:22;;;;;;;10.88;4.95;;;;;;;23.30;46.65;99985.28;5091917;28;20024;-79
2022/10/01 07:31:05;;;;;;;5.40;4.65;;;;;;;23.36;46.17;99984.25;5090789;28;20034;-78
2022/10/01 07:33:31;;;;;;;6.95;5.95;;;;;;;22.89;46.41;99919.25;5092198;28;20020;-78
2022/10/01 07:36:00;;;;;;;9.25;7.70;;;;;;;23.32;46.24;99956.19;5092004;28;20059;-79
2022/10/01 07:38:25;;;;;;;8.95;7.43;;;;;;;23.18;46.20;99911.84;5092175;28;20473;-80
2022/10/01 07:40:52;;;;;;;9.63;7.32;;;;;;;23.42;46.33;99928.53;5092204;28;20058;-79
2022/10/01 07:43:18;;;;;;;8.98;7.28;;;;;;;23.50;45.92;99938.06;5092092;28;20393;-78
2022/10/01 07:45:45;;;;;;;11.73;7.68;;;;;;;23.55;46.27;99954.31;5092548;28;20035;-79
2022/10/01 07:48:13;;;;;;;10.55;7.63;;;;;;;23.73;46.15;99962.88;5092391;28;20028;-79
2022/10/01 07:50:42;;;;;;;8.65;7.07;;;;;;;22.80;46.13;99840.81;5092009;28;20032;-79
2022/10/01 07:53:07;;;;;;;9.77;6.50;;;;;;;23.34;45.60;99948.66;5092123;28;20027;-78
2022/10/01 07:55:33;;;;;;;10.57;7.38;;;;;;;23.53;45.39;99959.13;5089789;28;20032;-79
2022/10/01 07:58:01;;;;;;;8.68;7.25;;;;;;;23.24;45.56;99927.00;5091930;28;20512;-79
2022/10/01 08:00:29;;;;;;;7.82;6.80;;;;;;;23.43;45.45;99941.78;5091901;28;20546;-79
2022/10/01 08:02:55;;;;;;;10.48;7.60;;;;;;;23.68;45.36;99959.31;5090714;28;20067;-79
2022/10/01 08:05:23;;;;;;;8.35;7.25;;;;;;;23.51;45.48;99929.72;5091796;28;20055;-79
2022/10/01 08:07:49;;;;;;;8.65;7.45;;;;;;;23.96;45.38;99971.75;5091648;28;20420;-79
2022/10/01 08:10:18;;;;;;;9.98;8.27;;;;;;;23.97;45.02;99970.69;5091989;28;20500;-79
2022/10/01 08:12:43;;;;;;;12.73;8.60;;;;;;;23.79;45.18;99949.47;5092242;28;20020;-79
2022/10/01 08:15:14;;;;;;;12.20;9.32;;;;;;;23.98;45.07;99981.22;5091752;28;20497;-79
2022/10/01 08:17:40;;;;;;;14.05;8.45;;;;;;;23.86;44.85;99947.38;5091516;28;20056;-78
2022/10/01 08:20:07;;;;;;;9.73;7.22;;;;;;;23.82;44.47;99912.03;5091584;28;20554;-79
2022/10/01 08:22:33;;;;;;;9.70;6.88;;;;;;;24.11;43.97;99930.63;5092056;28;20031;-79
2022/10/01 08:24:59;;;;;;;7.68;6.47;;;;;;;24.34;44.03;99936.50;5091688;28;20028;-79
2022/10/01 08:27:24;;;;;;;7.00;5.90;;;;;;;24.54;43.78;99951.25;5091347;28;20020;-79
2022/10/01 08:29:50;;;;;;;9.70;7.30;;;;;;;24.60;43.68;99934.81;5090085;28;20114;-79
2022/10/01 08:32:16;;;;;;;9.65;7.05;;;;;;;24.59;43.54;99930.47;5091464;28;20032;-79
2022/10/01 08:34:41;;;;;;;13.82;7.70;;;;;;;24.26;43.25;99884.84;5091319;28;20016;-79
2022/10/01 08:37:07;;;;;;;9.20;7.10;;;;;;;24.73;43.16;99943.53;5091381;28;20090;-78
2022/10/01 08:39:32;;;;;;;7.57;6.30;;;;;;;24.78;42.72;99936.25;5091383;28;20024;-77
2022/10/01 08:42:14;;;;;;;9.73;6.95;;;;;;;24.96;42.18;99949.31;5095525;28;20034;-80
2022/10/01 08:44:44;;;;;;;7.50;5.70;;;;;;;24.90;42.12;99927.94;5095677;28;20035;-79
2022/10/01 08:47:25;;;;;;;7.80;6.82;;;;;;;25.20;42.29;99947.03;5095472;28;20106;-78
2022/10/01 08:49:58;;;;;;;10.15;7.05;;;;;;;24.90;41.94;99869.34;5094818;28;20020;-79
2022/10/01 08:52:32;;;;;;;8.63;6.45;;;;;;;25.55;41.52;99962.59;5095300;28;20106;-79
2022/10/01 08:55:03;;;;;;;6.50;5.80;;;;;;;25.09;41.36;99894.03;5095566;28;20035;-78
2022/10/01 08:57:33;;;;;;;6.55;5.28;;;;;;;25.43;41.27;99926.06;5095198;28;20114;-79
2022/10/01 09:00:02;;;;;;;8.25;5.22;;;;;;;25.76;40.59;99947.25;5094998;28;20489;-79
2022/10/01 09:02:34;;;;;;;6.53;5.55;;;;;;;25.79;40.27;99913.44;5095323;28;20024;-79
2022/10/01 09:05:01;;;;;;;;;;;;;;;25.96;40.30;99944.56;5094504;28;20023;-79
2022/10/01 09:07:45;;;;;;;6.43;5.07;;;;;;;26.20;40.14;99939.47;5095117;28;19907;-77
2022/10/01 09:10:34;;;;;;;5.28;4.78;;;;;;;26.05;39.08;99884.53;5094937;28;20508;-78
2022/10/01 09:13:03;;;;;;;5.60;5.10;;;;;;;26.62;39.21;99934.84;5094901;28;20016;-79
2022/10/01 09:15:33;;;;;;;5.97;5.07;;;;;;;26.73;38.62;99933.72;5094620;28;20056;-79
2022/10/01 09:18:29;;;;;;;6.38;5.78;;;;;;;26.49;38.24;99874.75;5094565;28;20024;-78
2022/10/01 09:20:57;;;;;;;6.80;5.78;;;;;;;26.34;38.15;99838.78;5095034;28;20028;-79
2022/10/01 09:23:28;;;;;;;10.05;4.85;;;;;;;26.59;37.66;99847.63;5094600;28;20111;-79
2022/10/01 09:25:57;;;;;;;6.53;5.15;;;;;;;26.73;37.85;99861.38;5093502;28;20031;-79
2022/10/01 09:28:23;;;;;;;6.43;5.82;;;;;;;27.01;38.35;99900.63;5093511;28;20107;-80
2022/10/01 09:31:16;;;;;;;9.23;6.28;;;;;;;27.01;38.50;99891.69;5093400;28;20035;-79
2022/10/01 09:33:51;;;;;;;10.15;8.13;;;;;;;26.93;38.39;99860.53;5094761;28;20050;-78
2022/10/01 09:36:19;;;;;;;9.07;8.13;;;;;;;27.35;37.79;99897.22;5094953;28;20412;-78
2022/10/01 09:39:01;;;;;;;6.25;5.45;;;;;;;27.17;36.96;99841.72;5094684;28;20039;-78
2022/10/01 09:41:27;;;;;;;7.95;6.78;;;;;;;27.27;37.15;99836.25;5094566;28;20125;-79
2022/10/01 09:43:52;;;;;;;8.05;6.95;;;;;;;27.72;37.15;99903.00;5092594;28;20123;-78
2022/10/01 09:46:18;;;;;;;10.13;9.23;;;;;;;27.54;37.65;99884.63;5094541;28;20027;-79
2022/10/01 09:48:51;;;;;;;5.82;5.32;;;;;;;27.43;37.75;99888.47;5094962;28;20504;-77
2022/10/01 09:51:27;;;;;;;7.35;6.65;;;;;;;27.20;37.94;99860.97;5093549;28;20035;-77
2022/10/01 09:54:21;;;;;;;5.53;4.70;;;;;;;27.58;37.60;99915.53;5093221;28;20048;-79
2022/10/01 09:57:05;;;;;;;6.82;6.13;;;;;;;27.64;37.07;99894.66;5093763;28;20030;-79
2022/10/01 09:59:46;;;;;;;7.80;7.00;;;;;;;27.52;36.75;99889.53;5092395;28;20020;-77
2022/10/01 10:02:32;;;;;;;7.73;6.47;;;;;;;27.57;36.12;99873.22;5093679;28;20516;-79
2022/10/01 10:05:03;;;;;;;8.45;4.57;;;;;;;27.54;36.96;99868.38;5093632;28;20269;-79
2022/10/01 10:07:33;;;;;;;6.75;4.35;;;;;;;27.31;36.95;99847.34;5093631;28;20023;-79
2022/10/01 10:10:15;;;;;;;7.00;5.05;;;;;;;27.09;36.80;99802.47;5092618;28;20028;-79
2022/10/01 10:12:42;;;;;;;9.75;6.28;;;;;;;27.63;36.60;99887.59;5092832;28;20404;-79
2022/10/01 10:15:15;;;;;;;7.32;6.63;;;;;;;27.53;36.96;99835.00;5092677;28;20027;-79
2022/10/01 10:17:43;;;;;;;6.63;5.88;;;;;;;28.10;36.32;99886.94;5092875;28;20515;-78
2022/10/01 10:20:22;;;;;;;6.43;5.13;;;;;;;27.99;36.05;99798.56;5105247;28;20004;-80
2022/10/01 10:22:47;;;;;;;6.90;4.60;;;;;;;28.11;35.17;99763.69;5118484;28;20234;-79
2022/10/01 10:25:21;;;;;;;8.23;7.43;;;;;;;29.04;34.85;99882.75;5095860;28;20036;-78
2022/10/01 10:27:54;;;;;;;9.02;6.75;;;;;;;28.72;34.83;99839.88;5094602;28;20012;-78
2022/10/01 10:30:25;;;;;;;11.00;5.70;;;;;;;28.86;34.44;99877.25;5094445;28;20020;-79
2022/10/01 10:33:01;;;;;;;4.80;4.35;;;;;;;28.61;34.85;99845.75;5093516;28;20022;-78
2022/10/01 10:35:27;;;;;;;5.75;3.95;;;;;;;28.48;34.38;99839.91;5092280;28;20470;-78
2022/10/01 10:37:56;;;;;;;6.28;4.32;;;;;;;28.19;34.75;99809.22;5092370;28;20028;-78
2022/10/01 10:40:27;;;;;;;13.45;11.95;;;;;;;28.68;34.82;99852.44;5093318;28;20516;-79
2022/10/01 10:42:55;;;;;;;10.95;9.75;;;;;;;28.47;34.53;99770.38;5093341;28;20026;-78
2022/10/01 10:45:36;;;;;;;10.27;7.90;;;;;;;29.04;34.28;99847.41;5093498;28;20097;-78
2022/10/01 10:48:06;;;;;;;7.82;6.70;;;;;;;28.94;34.13;99833.13;5092196;28;20024;-78
2022/10/01 10:50:36;;;;;;;8.90;7.47;;;;;;;28.70;34.56;99804.03;5093333;28;20032;-79
2022/10/01 10:53:26;;;;;;;4.28;3.88;;;;;;;28.91;33.57;99810.06;5092711;28;20023;-79
2022/10/01 10:55:57;;;;;;;10.15;9.25;;;;;;;29.11;33.97;99852.50;5092751;28;20047;-78
2022/10/01 10:58:28;;;;;;;11.52;5.45;;;;;;;28.78;34.27;99835.19;5092966;28;20095;-79
2022/10/01 11:00:57;;;;;;;10.35;8.88;;;;;;;28.83;34.45;99839.75;5092506;28;20101;-78
2022/10/01 11:03:25;;;;;;;7.07;4.60;;;;;;;28.91;34.76;99853.53;5092068;28;20028;-79
2022/10/01 11:05:55;;;;;;;6.68;5.68;;;;;;;29.00;34.62;99853.72;5093004;28;20020;-79
2022/10/01 11:08:27;;;;;;;5.35;4.65;;;;;;;28.70;34.66;99809.47;5093509;28;20031;-79
2022/10/01 11:11:32;;;;;;;8.63;5.97;;;;;;;29.36;34.19;99868.44;5093569;28;20020;-78
2022/10/01 11:14:15;;;;;;;6.97;5.55;;;;;;;29.71;33.54;99878.00;5093058;28;20020;-78
2022/10/01 11:17:15;;;;;;;6.80;4.75;;;;;;;29.32;33.29;99798.63;5092700;28;20028;-78
2022/10/01 11:19:57;;;;;;;7.03;5.40;;;;;;;29.65;33.60;99876.47;5092616;28;20081;-78
2022/10/01 11:22:44;;;;;;;7.07;4.47;;;;;;;29.47;33.61;99890.09;5092872;28;20424;-79
2022/10/01 11:25:27;;;;;;;8.73;5.45;;;;;;;28.77;34.18;99814.56;5091018;28;20035;-78
2022/10/01 11:28:12;;;;;;;6.13;4.13;;;;;;;28.82;33.72;99838.94;5090860;28;20407;-79
2022/10/01 11:30:54;;;;;;;7.70;6.10;;;;;;;28.66;33.84;99840.25;5091476;28;20078;-78
2022/10/01 11:33:32;;;;;;;7.03;5.57;;;;;;;29.20;34.29;99913.28;5091978;28;20020;-79
2022/10/01 11:36:08;;;;;;;6.38;5.70;;;;;;;29.22;33.99;99891.22;5092200;28;20032;-78
2022/10/01 11:38:36;;;;;;;10.02;8.07;;;;;;;29.29;33.82;99927.03;5092502;28;20031;-78
2022/10/01 11:41:30;;;;;;;5.47;4.78;;;;;;;29.04;33.13;99915.38;5092466;28;20028;-79
2022/10/01 11:44:06;;;;;;;9.05;6.85;;;;;;;28.68;33.45;99895.91;5092313;28;20085;-78
2022/10/01 11:46:37;;;;;;;9.02;6.47;;;;;;;28.82;33.98;99936.00;5092324;28;20031;-78